sensor_id;sensor_type;location;lat;lon;timestamp;pressure;altitude;pressure_sealevel;temperature;humidity
38197;BME280;26543;51.976;4.616;2023-05-25T00:01:14;52764.25;;;-140.72;100.00
38197;BME280;26543;51.976;4.616;2023-05-25T00:03:40;52784.53;;;-140.72;100.00
38197;BME280;26543;51.976;4.616;2023-05-25T00:06:06;52762.22;;;-140.72;100.00
38197;BME280;26543;51.976;4.616;2023-05-25T00:08:31;52731.75;;;-140.72;100.00
38197;BME280;26543;51.976;4.616;2023-05-25T00:10:59;52790.63;;;-140.72;100.00
38197;BME280;26543;51.976;4.616;2023-05-25T00:13:24;52774.38;;;-140.72;100.00
38197;BME280;26543;51.976;4.616;2023-05-25T00:15:56;52735.81;;;-140.72;100.00
38197;BME280;26543;51.976;4.616;2023-05-25T00:18:21;52790.63;;;-140.72;100.00
38197;BME280;26543;51.976;4.616;2023-05-25T00:20:46;52784.53;;;-140.72;100.00
38197;BME280;26543;51.976;4.616;2023-05-25T00:23:12;52786.56;;;-140.72;100.00
38197;BME280;26543;51.976;4.616;2023-05-25T00:25:37;52780.47;;;-140.72;100.00
38197;BME280;26543;51.976;4.616;2023-05-25T00:28:02;52786.56;;;-140.72;100.00
38197;BME280;26543;51.976;4.616;2023-05-25T00:30:28;52817.00;;;-140.72;100.00
38197;BME280;26543;51.976;4.616;2023-05-25T00:32:53;52764.25;;;-140.72;100.00
38197;BME280;26543;51.976;4.616;2023-05-25T00:35:19;52780.47;;;-140.72;100.00
38197;BME280;26543;51.976;4.616;2023-05-25T00:37:44;52780.47;;;-140.72;100.00
38197;BME280;26543;51.976;4.616;2023-05-25T00:40:10;52786.56;;;-140.72;100.00
38197;BME280;26543;51.976;4.616;2023-05-25T00:42:38;52709.44;;;-140.72;100.00
38197;BME280;26543;51.976;4.616;2023-05-25T00:45:03;52756.13;;;-140.72;100.00
38197;BME280;26543;51.976;4.616;2023-05-25T00:47:29;52719.59;;;-140.72;100.00
38197;BME280;26543;51.976;4.616;2023-05-25T00:49:55;52741.91;;;-140.72;100.00
38197;BME280;26543;51.976;4.616;2023-05-25T00:52:21;52743.94;;;-140.72;100.00
38197;BME280;26543;51.976;4.616;2023-05-25T00:54:46;52772.34;;;-140.72;100.00
38197;BME280;26543;51.976;4.616;2023-05-25T00:57:16;52760.19;;;-140.72;100.00
38197;BME280;26543;51.976;4.616;2023-05-25T00:59:43;52723.66;;;-140.72;100.00
38197;BME280;26543;51.976;4.616;2023-05-25T01:02:10;52723.66;;;-140.72;100.00
38197;BME280;26543;51.976;4.616;2023-05-25T01:07:21;52762.22;;;-140.72;100.00
38197;BME280;26543;51.976;4.616;2023-05-25T01:09:57;52707.41;;;-140.72;100.00
38197;BME280;26543;51.976;4.616;2023-05-25T01:12:22;52750.03;;;-140.72;100.00
38197;BME280;26543;51.976;4.616;2023-05-25T01:14:48;52792.66;;;-140.72;100.00
38197;BME280;26543;51.976;4.616;2023-05-25T01:17:14;52778.44;;;-140.72;100.00
38197;BME280;26543;51.976;4.616;2023-05-25T01:19:39;52786.56;;;-140.72;100.00
38197;BME280;26543;51.976;4.616;2023-05-25T01:22:19;52768.28;;;-140.72;100.00
38197;BME280;26543;51.976;4.616;2023-05-25T01:24:56;52762.22;;;-140.72;100.00
38197;BME280;26543;51.976;4.616;2023-05-25T01:30:24;52737.84;;;-140.72;100.00
38197;BME280;26543;51.976;4.616;2023-05-25T01:32:50;52731.75;;;-140.72;100.00
38197;BME280;26543;51.976;4.616;2023-05-25T01:35:17;52768.28;;;-140.72;100.00
38197;BME280;26543;51.976;4.616;2023-05-25T01:37:44;52804.81;;;-140.72;100.00
38197;BME280;26543;51.976;4.616;2023-05-25T01:42:45;52705.38;;;-140.72;100.00
38197;BME280;26543;51.976;4.616;2023-05-25T01:45:10;52782.50;;;-140.72;100.00
38197;BME280;26543;51.976;4.616;2023-05-25T01:52:49;52784.53;;;-140.72;100.00
38197;BME280;26543;51.976;4.616;2023-05-25T01:55:16;52764.25;;;-140.72;100.00
38197;BME280;26543;51.976;4.616;2023-05-25T01:57:45;52796.72;;;-140.72;100.00
38197;BME280;26543;51.976;4.616;2023-05-25T02:00:13;52756.13;;;-140.72;100.00
38197;BME280;26543;51.976;4.616;2023-05-25T02:02:39;52798.72;;;-140.72;100.00
38197;BME280;26543;51.976;4.616;2023-05-25T02:05:06;52766.25;;;-140.72;100.00
38197;BME280;26543;51.976;4.616;2023-05-25T02:07:32;52784.53;;;-140.72;100.00
38197;BME280;26543;51.976;4.616;2023-05-25T02:09:57;52770.31;;;-140.72;100.00
38197;BME280;26543;51.976;4.616;2023-05-25T02:12:22;52780.47;;;-140.72;100.00
38197;BME280;26543;51.976;4.616;2023-05-25T02:14:48;52800.75;;;-140.72;100.00
38197;BME280;26543;51.976;4.616;2023-05-25T02:17:13;52808.88;;;-140.72;100.00
38197;BME280;26543;51.976;4.616;2023-05-25T02:19:39;52800.75;;;-140.72;100.00
38197;BME280;26543;51.976;4.616;2023-05-25T02:22:04;52776.41;;;-140.72;100.00
38197;BME280;26543;51.976;4.616;2023-05-25T02:24:30;52810.91;;;-140.72;100.00
38197;BME280;26543;51.976;4.616;2023-05-25T02:26:55;52762.22;;;-140.72;100.00
38197;BME280;26543;51.976;4.616;2023-05-25T02:29:20;52758.16;;;-140.72;100.00
38197;BME280;26543;51.976;4.616;2023-05-25T02:31:45;52733.78;;;-140.72;100.00
38197;BME280;26543;51.976;4.616;2023-05-25T02:34:13;52776.41;;;-140.72;100.00
38197;BME280;26543;51.976;4.616;2023-05-25T02:36:39;52774.38;;;-140.72;100.00
38197;BME280;26543;51.976;4.616;2023-05-25T02:39:07;52812.94;;;-140.72;100.00
38197;BME280;26543;51.976;4.616;2023-05-25T02:41:33;52782.50;;;-140.72;100.00
38197;BME280;26543;51.976;4.616;2023-05-25T02:43:58;52768.28;;;-140.72;100.00
38197;BME280;26543;51.976;4.616;2023-05-25T02:46:25;52758.16;;;-140.72;100.00
38197;BME280;26543;51.976;4.616;2023-05-25T02:48:50;52798.72;;;-140.72;100.00
38197;BME280;26543;51.976;4.616;2023-05-25T02:54:02;52754.09;;;-140.72;100.00
38197;BME280;26543;51.976;4.616;2023-05-25T02:56:33;52739.88;;;-140.72;100.00
38197;BME280;26543;51.976;4.616;2023-05-25T02:58:58;52754.09;;;-140.72;100.00
38197;BME280;26543;51.976;4.616;2023-05-25T03:01:24;52713.50;;;-140.72;100.00
38197;BME280;26543;51.976;4.616;2023-05-25T03:06:23;52784.53;;;-140.72;100.00
38197;BME280;26543;51.976;4.616;2023-05-25T03:08:50;52804.81;;;-140.72;100.00
38197;BME280;26543;51.976;4.616;2023-05-25T03:11:26;52752.06;;;-140.72;100.00
38197;BME280;26543;51.976;4.616;2023-05-25T03:13:51;52790.63;;;-140.72;100.00
38197;BME280;26543;51.976;4.616;2023-05-25T03:16:16;52784.53;;;-140.72;100.00
38197;BME280;26543;51.976;4.616;2023-05-25T03:18:42;52770.31;;;-140.72;100.00
38197;BME280;26543;51.976;4.616;2023-05-25T03:21:07;52772.34;;;-140.72;100.00
38197;BME280;26543;51.976;4.616;2023-05-25T03:23:32;52745.97;;;-140.72;100.00
38197;BME280;26543;51.976;4.616;2023-05-25T03:25:58;52808.88;;;-140.72;100.00
38197;BME280;26543;51.976;4.616;2023-05-25T03:28:23;52782.50;;;-140.72;100.00
38197;BME280;26543;51.976;4.616;2023-05-25T03:30:49;52782.50;;;-140.72;100.00
38197;BME280;26543;51.976;4.616;2023-05-25T03:33:14;52774.38;;;-140.72;100.00
38197;BME280;26543;51.976;4.616;2023-05-25T03:35:39;52827.16;;;-140.72;100.00
38197;BME280;26543;51.976;4.616;2023-05-25T03:38:04;52741.91;;;-140.72;100.00
38197;BME280;26543;51.976;4.616;2023-05-25T03:40:30;52752.06;;;-140.72;100.00
38197;BME280;26543;51.976;4.616;2023-05-25T03:42:55;52782.50;;;-140.72;100.00
38197;BME280;26543;51.976;4.616;2023-05-25T03:45:20;52776.41;;;-140.72;100.00
38197;BME280;26543;51.976;4.616;2023-05-25T03:47:45;52798.72;;;-140.72;100.00
38197;BME280;26543;51.976;4.616;2023-05-25T03:50:11;52780.47;;;-140.72;100.00
38197;BME280;26543;51.976;4.616;2023-05-25T03:52:37;52804.81;;;-140.72;100.00
38197;BME280;26543;51.976;4.616;2023-05-25T03:55:02;52788.59;;;-140.72;100.00
38197;BME280;26543;51.976;4.616;2023-05-25T03:57:29;52817.00;;;-140.72;100.00
38197;BME280;26543;51.976;4.616;2023-05-25T03:59:54;52835.25;;;-140.72;100.00
38197;BME280;26543;51.976;4.616;2023-05-25T04:02:19;52768.28;;;-140.72;100.00
38197;BME280;26543;51.976;4.616;2023-05-25T04:04:44;52810.91;;;-140.72;100.00
38197;BME280;26543;51.976;4.616;2023-05-25T04:07:10;52768.28;;;-140.72;100.00
38197;BME280;26543;51.976;4.616;2023-05-25T04:09:35;52821.06;;;-140.72;100.00
38197;BME280;26543;51.976;4.616;2023-05-25T04:12:00;52776.41;;;-140.72;100.00
38197;BME280;26543;51.976;4.616;2023-05-25T04:14:26;52800.75;;;-140.72;100.00
38197;BME280;26543;51.976;4.616;2023-05-25T04:16:51;52792.66;;;-140.72;100.00
38197;BME280;26543;51.976;4.616;2023-05-25T04:19:17;52806.84;;;-140.72;100.00
38197;BME280;26543;51.976;4.616;2023-05-25T04:21:42;52794.69;;;-140.72;100.00
38197;BME280;26543;51.976;4.616;2023-05-25T04:24:07;52796.72;;;-140.72;100.00
38197;BME280;26543;51.976;4.616;2023-05-25T04:26:32;52788.59;;;-140.72;100.00
38197;BME280;26543;51.976;4.616;2023-05-25T04:28:58;52780.47;;;-140.72;100.00
38197;BME280;26543;51.976;4.616;2023-05-25T04:31:26;52772.34;;;-140.72;100.00
38197;BME280;26543;51.976;4.616;2023-05-25T04:33:51;52786.56;;;-140.72;100.00
38197;BME280;26543;51.976;4.616;2023-05-25T04:36:16;52794.69;;;-140.72;100.00
38197;BME280;26543;51.976;4.616;2023-05-25T04:38:41;52782.50;;;-140.72;100.00
38197;BME280;26543;51.976;4.616;2023-05-25T04:41:11;52784.53;;;-140.72;100.00
38197;BME280;26543;51.976;4.616;2023-05-25T04:43:38;52784.53;;;-140.72;100.00
38197;BME280;26543;51.976;4.616;2023-05-25T04:46:03;52758.16;;;-140.72;100.00
38197;BME280;26543;51.976;4.616;2023-05-25T04:51:14;52772.34;;;-140.72;100.00
38197;BME280;26543;51.976;4.616;2023-05-25T04:53:40;52760.19;;;-140.72;100.00
38197;BME280;26543;51.976;4.616;2023-05-25T04:56:05;52772.34;;;-140.72;100.00
38197;BME280;26543;51.976;4.616;2023-05-25T04:58:30;52764.25;;;-140.72;100.00
38197;BME280;26543;51.976;4.616;2023-05-25T05:00:56;52780.47;;;-140.72;100.00
38197;BME280;26543;51.976;4.616;2023-05-25T05:03:22;52752.06;;;-140.72;100.00
38197;BME280;26543;51.976;4.616;2023-05-25T05:05:48;52758.16;;;-140.72;100.00
38197;BME280;26543;51.976;4.616;2023-05-25T05:08:13;52776.41;;;-140.72;100.00
38197;BME280;26543;51.976;4.616;2023-05-25T05:10:38;52792.66;;;-140.72;100.00
38197;BME280;26543;51.976;4.616;2023-05-25T05:13:03;52741.91;;;-140.72;100.00
38197;BME280;26543;51.976;4.616;2023-05-25T05:15:29;52745.97;;;-140.72;100.00
38197;BME280;26543;51.976;4.616;2023-05-25T05:17:54;52808.88;;;-140.72;100.00
38197;BME280;26543;51.976;4.616;2023-05-25T05:20:20;52792.66;;;-140.72;100.00
38197;BME280;26543;51.976;4.616;2023-05-25T05:22:45;52784.53;;;-140.72;100.00
38197;BME280;26543;51.976;4.616;2023-05-25T05:25:10;52756.13;;;-140.72;100.00
38197;BME280;26543;51.976;4.616;2023-05-25T05:27:35;52772.34;;;-140.72;100.00
38197;BME280;26543;51.976;4.616;2023-05-25T05:30:01;52764.25;;;-140.72;100.00
38197;BME280;26543;51.976;4.616;2023-05-25T05:32:27;52745.97;;;-140.72;100.00
38197;BME280;26543;51.976;4.616;2023-05-25T05:34:52;52697.28;;;-140.72;100.00
38197;BME280;26543;51.976;4.616;2023-05-25T05:37:17;52758.16;;;-140.72;100.00
38197;BME280;26543;51.976;4.616;2023-05-25T05:39:42;52723.66;;;-140.72;100.00
38197;BME280;26543;51.976;4.616;2023-05-25T05:42:08;52758.16;;;-140.72;100.00
38197;BME280;26543;51.976;4.616;2023-05-25T05:44:33;52739.88;;;-140.72;100.00
38197;BME280;26543;51.976;4.616;2023-05-25T05:46:58;52764.25;;;-140.72;100.00
38197;BME280;26543;51.976;4.616;2023-05-25T05:49:30;52741.91;;;-140.72;100.00
38197;BME280;26543;51.976;4.616;2023-05-25T05:51:56;52737.84;;;-140.72;100.00
38197;BME280;26543;51.976;4.616;2023-05-25T05:54:21;52731.75;;;-140.72;100.00
38197;BME280;26543;51.976;4.616;2023-05-25T05:56:47;52727.72;;;-140.72;100.00
38197;BME280;26543;51.976;4.616;2023-05-25T05:59:12;52707.41;;;-140.72;100.00
38197;BME280;26543;51.976;4.616;2023-05-25T06:01:37;52731.75;;;-140.72;100.00
38197;BME280;26543;51.976;4.616;2023-05-25T06:04:05;52711.47;;;-140.72;100.00
38197;BME280;26543;51.976;4.616;2023-05-25T06:06:31;52754.09;;;-140.72;100.00
38197;BME280;26543;51.976;4.616;2023-05-25T06:08:58;52721.63;;;-140.72;100.00
38197;BME280;26543;51.976;4.616;2023-05-25T06:11:24;52743.94;;;-140.72;100.00
38197;BME280;26543;51.976;4.616;2023-05-25T06:13:50;52754.09;;;-140.72;100.00
38197;BME280;26543;51.976;4.616;2023-05-25T06:16:15;52735.81;;;-140.72;100.00
38197;BME280;26543;51.976;4.616;2023-05-25T06:18:40;52697.28;;;-140.72;100.00
38197;BME280;26543;51.976;4.616;2023-05-25T06:21:06;52719.59;;;-140.72;100.00
38197;BME280;26543;51.976;4.616;2023-05-25T06:23:31;52691.19;;;-140.72;100.00
38197;BME280;26543;51.976;4.616;2023-05-25T06:25:56;52705.38;;;-140.72;100.00
38197;BME280;26543;51.976;4.616;2023-05-25T06:28:21;52705.38;;;-140.72;100.00
38197;BME280;26543;51.976;4.616;2023-05-25T06:30:47;52695.25;;;-140.72;100.00
38197;BME280;26543;51.976;4.616;2023-05-25T06:33:12;52668.84;;;-140.72;100.00
38197;BME280;26543;51.976;4.616;2023-05-25T06:35:37;52660.75;;;-140.72;100.00
38197;BME280;26543;51.976;4.616;2023-05-25T06:38:02;52721.63;;;-140.72;100.00
38197;BME280;26543;51.976;4.616;2023-05-25T06:40:28;52687.13;;;-140.72;100.00
38197;BME280;26543;51.976;4.616;2023-05-25T06:42:53;52683.06;;;-140.72;100.00
38197;BME280;26543;51.976;4.616;2023-05-25T06:45:19;52644.50;;;-140.72;100.00
38197;BME280;26543;51.976;4.616;2023-05-25T06:47:44;52668.84;;;-140.72;100.00
38197;BME280;26543;51.976;4.616;2023-05-25T06:52:52;52636.38;;;-140.72;100.00
38197;BME280;26543;51.976;4.616;2023-05-25T06:55:18;52668.84;;;-140.72;100.00
38197;BME280;26543;51.976;4.616;2023-05-25T06:57:43;52674.94;;;-140.72;100.00
38197;BME280;26543;51.976;4.616;2023-05-25T07:00:08;52666.84;;;-140.72;100.00
38197;BME280;26543;51.976;4.616;2023-05-25T07:02:37;52648.56;;;-140.72;100.00
38197;BME280;26543;51.976;4.616;2023-05-25T07:05:02;52652.63;;;-140.72;100.00
38197;BME280;26543;51.976;4.616;2023-05-25T07:07:29;52624.22;;;-140.72;100.00
38197;BME280;26543;51.976;4.616;2023-05-25T07:09:55;52626.25;;;-140.72;100.00
38197;BME280;26543;51.976;4.616;2023-05-25T07:12:20;52626.25;;;-140.72;100.00
38197;BME280;26543;51.976;4.616;2023-05-25T07:14:45;52618.13;;;-140.72;100.00
38197;BME280;26543;51.976;4.616;2023-05-25T07:17:12;52658.72;;;-140.72;100.00
38197;BME280;26543;51.976;4.616;2023-05-25T07:19:37;52638.41;;;-140.72;100.00
38197;BME280;26543;51.976;4.616;2023-05-25T07:22:03;52591.75;;;-140.72;100.00
38197;BME280;26543;51.976;4.616;2023-05-25T07:27:12;52601.91;;;-140.72;100.00
38197;BME280;26543;51.976;4.616;2023-05-25T07:29:38;52607.97;;;-140.72;100.00
38197;BME280;26543;51.976;4.616;2023-05-25T07:32:04;52573.50;;;-140.72;100.00
38197;BME280;26543;51.976;4.616;2023-05-25T07:34:29;52565.38;;;-140.72;100.00
38197;BME280;26543;51.976;4.616;2023-05-25T07:39:31;52626.25;;;-140.72;100.00
38197;BME280;26543;51.976;4.616;2023-05-25T07:41:56;52569.44;;;-140.72;100.00
38197;BME280;26543;51.976;4.616;2023-05-25T07:44:22;52575.50;;;-140.72;100.00
38197;BME280;26543;51.976;4.616;2023-05-25T07:49:40;52539.00;;;-140.72;100.00
38197;BME280;26543;51.976;4.616;2023-05-25T07:52:05;52563.34;;;-140.72;100.00
38197;BME280;26543;51.976;4.616;2023-05-25T07:54:31;52530.88;;;-140.72;100.00
38197;BME280;26543;51.976;4.616;2023-05-25T07:56:56;52557.25;;;-140.72;100.00
38197;BME280;26543;51.976;4.616;2023-05-25T07:59:21;52553.19;;;-140.72;100.00
38197;BME280;26543;51.976;4.616;2023-05-25T08:01:56;52520.72;;;-140.72;100.00
38197;BME280;26543;51.976;4.616;2023-05-25T08:04:21;52496.38;;;-140.72;100.00
38197;BME280;26543;51.976;4.616;2023-05-25T08:06:46;52541.03;;;-140.72;94.68
38197;BME280;26543;51.976;4.616;2023-05-25T08:12:23;52553.19;;;-140.72;57.46
38197;BME280;26543;51.976;4.616;2023-05-25T08:14:48;52486.22;;;-140.72;74.42
38197;BME280;26543;51.976;4.616;2023-05-25T08:17:14;52543.03;;;-140.72;51.87
38197;BME280;26543;51.976;4.616;2023-05-25T08:19:40;52512.59;;;-140.72;50.78
38197;BME280;26543;51.976;4.616;2023-05-25T08:22:05;52470.00;;;-140.72;52.36
38197;BME280;26543;51.976;4.616;2023-05-25T08:27:33;52411.16;;;-140.72;0.00
38197;BME280;26543;51.976;4.616;2023-05-25T08:32:32;52362.44;;;-140.72;0.00
38197;BME280;26543;51.976;4.616;2023-05-25T08:34:57;52380.72;;;-140.72;0.00
38197;BME280;26543;51.976;4.616;2023-05-25T08:37:22;52325.94;;;-140.72;0.00
38197;BME280;26543;51.976;4.616;2023-05-25T08:39:50;52386.81;;;-140.72;0.00
38197;BME280;26543;51.976;4.616;2023-05-25T08:42:15;52398.97;;;-140.72;0.00
38197;BME280;26543;51.976;4.616;2023-05-25T08:44:41;52435.50;;;-140.72;0.00
38197;BME280;26543;51.976;4.616;2023-05-25T08:47:06;52459.84;;;-140.72;0.00
38197;BME280;26543;51.976;4.616;2023-05-25T08:49:38;52455.78;;;-140.72;0.00
38197;BME280;26543;51.976;4.616;2023-05-25T08:52:05;52484.19;;;-140.72;0.00
38197;BME280;26543;51.976;4.616;2023-05-25T08:54:35;52512.59;;;-140.72;0.00
38197;BME280;26543;51.976;4.616;2023-05-25T09:04:34;52502.47;;;-140.72;0.00
38197;BME280;26543;51.976;4.616;2023-05-25T09:06:59;52455.78;;;-140.72;0.00
38197;BME280;26543;51.976;4.616;2023-05-25T09:09:25;52484.19;;;-140.72;0.00
38197;BME280;26543;51.976;4.616;2023-05-25T09:11:50;52484.19;;;-140.72;0.00
38197;BME280;26543;51.976;4.616;2023-05-25T09:17:12;52476.09;;;-140.72;0.00
38197;BME280;26543;51.976;4.616;2023-05-25T09:19:37;52472.03;;;-140.72;0.00
38197;BME280;26543;51.976;4.616;2023-05-25T09:22:03;52488.25;;;-140.72;0.00
38197;BME280;26543;51.976;4.616;2023-05-25T09:24:28;52459.84;;;-140.72;0.00
38197;BME280;26543;51.976;4.616;2023-05-25T09:26:54;52470.00;;;-140.72;0.00
38197;BME280;26543;51.976;4.616;2023-05-25T09:29:19;52461.88;;;-140.72;0.00
38197;BME280;26543;51.976;4.616;2023-05-25T09:31:45;52451.72;;;-140.72;0.00
38197;BME280;26543;51.976;4.616;2023-05-25T09:34:11;52449.72;;;-140.72;0.00
38197;BME280;26543;51.976;4.616;2023-05-25T09:36:37;52457.81;;;-140.72;0.00
38197;BME280;26543;51.976;4.616;2023-05-25T09:39:05;52439.56;;;-140.72;0.00
38197;BME280;26543;51.976;4.616;2023-05-25T09:41:32;52421.28;;;-140.72;0.00
38197;BME280;26543;51.976;4.616;2023-05-25T09:43:57;52419.28;;;-140.72;0.00
38197;BME280;26543;51.976;4.616;2023-05-25T09:46:23;52388.84;;;-140.72;0.00
38197;BME280;26543;51.976;4.616;2023-05-25T09:48:49;52447.69;;;-140.72;0.00
38197;BME280;26543;51.976;4.616;2023-05-25T09:51:15;52463.91;;;-140.72;0.00
38197;BME280;26543;51.976;4.616;2023-05-25T09:53:41;52439.56;;;-140.72;0.00
38197;BME280;26543;51.976;4.616;2023-05-25T09:56:06;52467.97;;;-140.72;0.00
38197;BME280;26543;51.976;4.616;2023-05-25T09:58:31;52484.19;;;-140.72;0.00
38197;BME280;26543;51.976;4.616;2023-05-25T10:00:57;52496.38;;;-140.72;0.00
38197;BME280;26543;51.976;4.616;2023-05-25T10:03:22;52411.16;;;-140.72;0.00
38197;BME280;26543;51.976;4.616;2023-05-25T10:05:48;52305.63;;;-140.72;0.00
38197;BME280;26543;51.976;4.616;2023-05-25T10:08:13;52236.66;;;-140.72;0.00
38197;BME280;26543;51.976;4.616;2023-05-25T10:10:43;52196.06;;;-140.72;0.00
38197;BME280;26543;51.976;4.616;2023-05-25T10:13:08;52192.00;;;-140.72;0.00
38197;BME280;26543;51.976;4.616;2023-05-25T10:15:35;52236.66;;;-140.72;0.00
38197;BME280;26543;51.976;4.616;2023-05-25T10:18:02;52204.19;;;-140.72;0.00
38197;BME280;26543;51.976;4.616;2023-05-25T10:20:27;52177.81;;;-140.72;0.00
38197;BME280;26543;51.976;4.616;2023-05-25T10:22:56;52206.22;;;-140.72;0.00
38197;BME280;26543;51.976;4.616;2023-05-25T10:25:35;52143.31;;;-140.72;0.00
38197;BME280;26543;51.976;4.616;2023-05-25T10:28:03;52135.19;;;-140.72;0.00
38197;BME280;26543;51.976;4.616;2023-05-25T10:30:31;52258.97;;;-140.72;0.00
38197;BME280;26543;51.976;4.616;2023-05-25T10:32:57;52277.22;;;-140.72;0.00
38197;BME280;26543;51.976;4.616;2023-05-25T10:35:22;52271.16;;;-140.72;0.00
38197;BME280;26543;51.976;4.616;2023-05-25T10:37:51;52334.03;;;-140.72;0.00
38197;BME280;26543;51.976;4.616;2023-05-25T10:40:17;52313.75;;;-140.72;0.00
38197;BME280;26543;51.976;4.616;2023-05-25T10:42:43;52334.03;;;-140.72;0.00
38197;BME280;26543;51.976;4.616;2023-05-25T10:45:09;52354.34;;;-140.72;0.00
38197;BME280;26543;51.976;4.616;2023-05-25T10:47:38;52394.91;;;-140.72;0.00
38197;BME280;26543;51.976;4.616;2023-05-25T10:50:06;52330.00;;;-140.72;0.00
38197;BME280;26543;51.976;4.616;2023-05-25T10:52:31;52317.81;;;-140.72;0.00
38197;BME280;26543;51.976;4.616;2023-05-25T10:54:58;52362.44;;;-140.72;0.00
38197;BME280;26543;51.976;4.616;2023-05-25T10:57:25;52358.41;;;-140.72;0.00
38197;BME280;26543;51.976;4.616;2023-05-25T10:59:51;52384.78;;;-140.72;0.00
38197;BME280;26543;51.976;4.616;2023-05-25T11:02:19;52327.97;;;-140.72;0.00
38197;BME280;26543;51.976;4.616;2023-05-25T11:04:47;52317.81;;;-140.72;0.00
38197;BME280;26543;51.976;4.616;2023-05-25T11:07:13;52366.50;;;-140.72;0.00
38197;BME280;26543;51.976;4.616;2023-05-25T11:09:40;52380.72;;;-140.72;0.00
38197;BME280;26543;51.976;4.616;2023-05-25T11:12:07;52382.75;;;-140.72;0.00
38197;BME280;26543;51.976;4.616;2023-05-25T11:14:33;52435.50;;;-140.72;0.00
38197;BME280;26543;51.976;4.616;2023-05-25T11:19:48;52358.41;;;-140.72;0.00
38197;BME280;26543;51.976;4.616;2023-05-25T11:22:17;52356.38;;;-140.72;0.00
38197;BME280;26543;51.976;4.616;2023-05-25T11:24:51;52334.03;;;-140.72;0.00
38197;BME280;26543;51.976;4.616;2023-05-25T11:27:23;52378.69;;;-140.72;0.00
38197;BME280;26543;51.976;4.616;2023-05-25T11:29:49;52325.94;;;-140.72;0.00
38197;BME280;26543;51.976;4.616;2023-05-25T11:32:14;52336.06;;;-140.72;0.00
38197;BME280;26543;51.976;4.616;2023-05-25T11:34:40;52398.97;;;-140.72;0.00
38197;BME280;26543;51.976;4.616;2023-05-25T11:37:10;52411.16;;;-140.72;0.00
38197;BME280;26543;51.976;4.616;2023-05-25T11:39:35;52441.59;;;-140.72;0.00
38197;BME280;26543;51.976;4.616;2023-05-25T11:42:01;52435.50;;;-140.72;0.00
38197;BME280;26543;51.976;4.616;2023-05-25T11:44:28;52445.66;;;-140.72;0.00
38197;BME280;26543;51.976;4.616;2023-05-25T11:46:55;52463.91;;;-140.72;0.00
38197;BME280;26543;51.976;4.616;2023-05-25T11:49:21;52431.44;;;-140.72;0.00
38197;BME280;26543;51.976;4.616;2023-05-25T11:51:46;52463.91;;;-140.72;0.00
38197;BME280;26543;51.976;4.616;2023-05-25T11:54:19;52472.03;;;-140.72;0.00
38197;BME280;26543;51.976;4.616;2023-05-25T11:56:45;52439.56;;;-140.72;0.00
38197;BME280;26543;51.976;4.616;2023-05-25T11:59:10;52417.25;;;-140.72;0.00
38197;BME280;26543;51.976;4.616;2023-05-25T12:01:35;52449.72;;;-140.72;0.00
38197;BME280;26543;51.976;4.616;2023-05-25T12:04:06;52445.66;;;-140.72;0.00
38197;BME280;26543;51.976;4.616;2023-05-25T12:06:32;52415.22;;;-140.72;0.00
38197;BME280;26543;51.976;4.616;2023-05-25T12:09:09;52459.84;;;-140.72;0.00
38197;BME280;26543;51.976;4.616;2023-05-25T12:11:35;52443.63;;;-140.72;0.00
38197;BME280;26543;51.976;4.616;2023-05-25T12:14:04;52411.16;;;-140.72;0.00
38197;BME280;26543;51.976;4.616;2023-05-25T12:16:30;52451.72;;;-140.72;0.00
38197;BME280;26543;51.976;4.616;2023-05-25T12:18:56;52429.41;;;-140.72;0.00
38197;BME280;26543;51.976;4.616;2023-05-25T12:21:21;52443.63;;;-140.72;0.00
38197;BME280;26543;51.976;4.616;2023-05-25T12:23:51;52437.53;;;-140.72;0.00
38197;BME280;26543;51.976;4.616;2023-05-25T12:29:20;52413.19;;;-140.72;0.00
38197;BME280;26543;51.976;4.616;2023-05-25T12:31:45;52429.41;;;-140.72;0.00
38197;BME280;26543;51.976;4.616;2023-05-25T12:34:14;52419.28;;;-140.72;0.00
38197;BME280;26543;51.976;4.616;2023-05-25T12:36:53;52380.72;;;-140.72;0.00
38197;BME280;26543;51.976;4.616;2023-05-25T12:41:53;52346.22;;;-140.72;0.00
38197;BME280;26543;51.976;4.616;2023-05-25T12:44:28;52321.88;;;-140.72;0.00
38197;BME280;26543;51.976;4.616;2023-05-25T12:47:19;52340.13;;;-140.72;0.00
38197;BME280;26543;51.976;4.616;2023-05-25T12:49:52;52378.69;;;-140.72;0.00
38197;BME280;26543;51.976;4.616;2023-05-25T12:52:34;52317.81;;;-140.72;0.00
38197;BME280;26543;51.976;4.616;2023-05-25T12:55:19;52342.16;;;-140.72;0.00
38197;BME280;26543;51.976;4.616;2023-05-25T12:57:45;52396.94;;;-140.72;0.00
38197;BME280;26543;51.976;4.616;2023-05-25T13:00:20;52358.41;;;-140.72;0.00
38197;BME280;26543;51.976;4.616;2023-05-25T13:02:46;52372.59;;;-140.72;0.00
38197;BME280;26543;51.976;4.616;2023-05-25T13:05:27;52340.13;;;-140.72;0.00
38197;BME280;26543;51.976;4.616;2023-05-25T13:07:53;52390.84;;;-140.72;0.00
38197;BME280;26543;51.976;4.616;2023-05-25T13:10:19;52368.53;;;-140.72;0.00
38197;BME280;26543;51.976;4.616;2023-05-25T13:12:45;52348.25;;;-140.72;0.00
38197;BME280;26543;51.976;4.616;2023-05-25T13:15:10;52342.16;;;-140.72;0.00
38197;BME280;26543;51.976;4.616;2023-05-25T13:17:36;52356.38;;;-140.72;0.00
38197;BME280;26543;51.976;4.616;2023-05-25T13:20:01;52350.28;;;-140.72;0.00
38197;BME280;26543;51.976;4.616;2023-05-25T13:22:28;52350.28;;;-140.72;0.00
38197;BME280;26543;51.976;4.616;2023-05-25T13:24:53;52256.94;;;-140.72;0.00
38197;BME280;26543;51.976;4.616;2023-05-25T13:27:18;52212.31;;;-140.72;0.00
38197;BME280;26543;51.976;4.616;2023-05-25T13:29:44;52240.72;;;-140.72;0.00
38197;BME280;26543;51.976;4.616;2023-05-25T13:32:09;52236.66;;;-140.72;0.00
38197;BME280;26543;51.976;4.616;2023-05-25T13:34:34;52214.34;;;-140.72;0.00